sensor_id;sensor_type;location;lat;lon;timestamp;P1;durP1;ratioP1;P2;durP2;ratioP2
47599;SDS011;33323;52.124;6.018;2022-10-04T00:01:43;8.13;;;0.80;;
47599;SDS011;33323;52.124;6.018;2022-10-04T00:04:20;5.65;;;1.00;;
47599;SDS011;33323;52.124;6.018;2022-10-04T00:06:54;2.40;;;0.90;;
47599;SDS011;33323;52.124;6.018;2022-10-04T00:12:21;5.25;;;0.90;;
47599;SDS011;33323;52.124;6.018;2022-10-04T00:14:58;2.78;;;1.13;;
47599;SDS011;33323;52.124;6.018;2022-10-04T00:17:30;3.55;;;1.67;;
47599;SDS011;33323;52.124;6.018;2022-10-04T00:20:01;5.47;;;1.13;;
47599;SDS011;33323;52.124;6.018;2022-10-04T00:22:30;3.75;;;1.08;;
47599;SDS011;33323;52.124;6.018;2022-10-04T00:31:05;4.85;;;1.13;;
47599;SDS011;33323;52.124;6.018;2022-10-04T00:33:46;9.13;;;1.65;;
47599;SDS011;33323;52.124;6.018;2022-10-04T00:47:00;10.95;;;1.85;;
47599;SDS011;33323;52.124;6.018;2022-10-04T00:49:39;6.28;;;2.35;;
47599;SDS011;33323;52.124;6.018;2022-10-04T00:52:20;8.20;;;1.58;;
47599;SDS011;33323;52.124;6.018;2022-10-04T00:54:53;9.88;;;1.48;;
47599;SDS011;33323;52.124;6.018;2022-10-04T01:00:00;11.70;;;1.73;;
47599;SDS011;33323;52.124;6.018;2022-10-04T01:05:09;3.75;;;1.33;;
47599;SDS011;33323;52.124;6.018;2022-10-04T01:10:55;9.10;;;1.45;;
47599;SDS011;33323;52.124;6.018;2022-10-04T01:13:29;8.18;;;1.30;;
47599;SDS011;33323;52.124;6.018;2022-10-04T01:16:08;9.27;;;1.30;;
47599;SDS011;33323;52.124;6.018;2022-10-04T01:18:45;9.95;;;1.50;;
47599;SDS011;33323;52.124;6.018;2022-10-04T01:23:46;5.97;;;1.67;;
47599;SDS011;33323;52.124;6.018;2022-10-04T01:34:00;3.65;;;1.08;;
47599;SDS011;33323;52.124;6.018;2022-10-04T01:36:30;8.68;;;1.15;;
47599;SDS011;33323;52.124;6.018;2022-10-04T01:38:58;9.20;;;1.15;;
47599;SDS011;33323;52.124;6.018;2022-10-04T01:41:27;8.02;;;1.55;;
47599;SDS011;33323;52.124;6.018;2022-10-04T01:44:05;12.25;;;1.88;;
47599;SDS011;33323;52.124;6.018;2022-10-04T01:46:43;6.68;;;2.30;;
47599;SDS011;33323;52.124;6.018;2022-10-04T01:49:12;13.13;;;3.15;;
47599;SDS011;33323;52.124;6.018;2022-10-04T01:51:51;11.10;;;2.72;;
47599;SDS011;33323;52.124;6.018;2022-10-04T01:54:35;7.22;;;1.80;;
47599;SDS011;33323;52.124;6.018;2022-10-04T02:05:27;9.80;;;5.05;;
47599;SDS011;33323;52.124;6.018;2022-10-04T02:08:04;10.93;;;5.20;;
47599;SDS011;33323;52.124;6.018;2022-10-04T02:10:36;10.07;;;3.83;;
47599;SDS011;33323;52.124;6.018;2022-10-04T02:13:09;8.48;;;4.05;;
47599;SDS011;33323;52.124;6.018;2022-10-04T02:15:40;11.50;;;4.10;;
47599;SDS011;33323;52.124;6.018;2022-10-04T02:18:13;12.10;;;3.47;;
47599;SDS011;33323;52.124;6.018;2022-10-04T02:20:43;13.77;;;3.85;;
47599;SDS011;33323;52.124;6.018;2022-10-04T02:23:15;8.13;;;2.88;;
47599;SDS011;33323;52.124;6.018;2022-10-04T02:25:44;9.25;;;4.00;;
47599;SDS011;33323;52.124;6.018;2022-10-04T02:28:12;12.18;;;4.18;;
47599;SDS011;33323;52.124;6.018;2022-10-04T02:30:41;6.35;;;3.78;;
47599;SDS011;33323;52.124;6.018;2022-10-04T02:33:33;13.15;;;4.53;;
47599;SDS011;33323;52.124;6.018;2022-10-04T02:38:39;10.32;;;4.22;;
47599;SDS011;33323;52.124;6.018;2022-10-04T02:44:03;11.18;;;4.03;;
47599;SDS011;33323;52.124;6.018;2022-10-04T02:49:44;15.05;;;5.32;;
47599;SDS011;33323;52.124;6.018;2022-10-04T02:57:50;7.95;;;4.30;;
47599;SDS011;33323;52.124;6.018;2022-10-04T03:00:19;10.75;;;4.18;;
47599;SDS011;33323;52.124;6.018;2022-10-04T03:03:29;10.00;;;4.57;;
47599;SDS011;33323;52.124;6.018;2022-10-04T03:06:04;7.28;;;3.80;;
47599;SDS011;33323;52.124;6.018;2022-10-04T03:11:13;10.60;;;3.97;;
47599;SDS011;33323;52.124;6.018;2022-10-04T03:13:43;6.90;;;3.60;;
47599;SDS011;33323;52.124;6.018;2022-10-04T03:16:13;8.45;;;3.85;;
47599;SDS011;33323;52.124;6.018;2022-10-04T03:18:40;8.05;;;4.18;;
47599;SDS011;33323;52.124;6.018;2022-10-04T03:21:09;12.27;;;7.15;;
47599;SDS011;33323;52.124;6.018;2022-10-04T03:23:39;11.35;;;6.15;;
47599;SDS011;33323;52.124;6.018;2022-10-04T03:26:25;11.73;;;6.60;;
47599;SDS011;33323;52.124;6.018;2022-10-04T03:29:05;10.85;;;5.80;;
47599;SDS011;33323;52.124;6.018;2022-10-04T03:31:38;21.20;;;9.13;;
47599;SDS011;33323;52.124;6.018;2022-10-04T03:34:17;16.85;;;8.13;;
47599;SDS011;33323;52.124;6.018;2022-10-04T03:36:47;11.32;;;8.00;;
47599;SDS011;33323;52.124;6.018;2022-10-04T03:39:24;14.18;;;7.13;;
47599;SDS011;33323;52.124;6.018;2022-10-04T03:41:54;15.38;;;7.97;;
47599;SDS011;33323;52.124;6.018;2022-10-04T03:44:23;12.50;;;8.65;;
47599;SDS011;33323;52.124;6.018;2022-10-04T03:46:51;16.63;;;9.32;;
47599;SDS011;33323;52.124;6.018;2022-10-04T03:49:22;14.85;;;8.18;;
47599;SDS011;33323;52.124;6.018;2022-10-04T03:51:57;19.67;;;10.35;;
47599;SDS011;33323;52.124;6.018;2022-10-04T03:54:26;17.00;;;8.05;;
47599;SDS011;33323;52.124;6.018;2022-10-04T03:56:54;13.55;;;6.55;;
47599;SDS011;33323;52.124;6.018;2022-10-04T03:59:24;13.68;;;6.28;;
47599;SDS011;33323;52.124;6.018;2022-10-04T04:01:58;9.07;;;5.45;;
47599;SDS011;33323;52.124;6.018;2022-10-04T04:08:13;15.32;;;8.15;;
47599;SDS011;33323;52.124;6.018;2022-10-04T04:10:50;11.57;;;7.25;;
47599;SDS011;33323;52.124;6.018;2022-10-04T04:16:09;10.02;;;5.00;;
47599;SDS011;33323;52.124;6.018;2022-10-04T04:18:38;9.82;;;5.20;;
47599;SDS011;33323;52.124;6.018;2022-10-04T04:21:08;11.13;;;5.53;;
47599;SDS011;33323;52.124;6.018;2022-10-04T04:26:49;12.50;;;6.25;;
47599;SDS011;33323;52.124;6.018;2022-10-04T04:29:32;14.75;;;7.15;;
47599;SDS011;33323;52.124;6.018;2022-10-04T04:32:14;8.90;;;6.18;;
47599;SDS011;33323;52.124;6.018;2022-10-04T04:34:51;11.48;;;7.38;;
47599;SDS011;33323;52.124;6.018;2022-10-04T04:37:19;21.33;;;5.93;;
47599;SDS011;33323;52.124;6.018;2022-10-04T04:39:48;5.65;;;4.55;;
47599;SDS011;33323;52.124;6.018;2022-10-04T04:42:37;9.45;;;5.82;;
47599;SDS011;33323;52.124;6.018;2022-10-04T04:45:14;10.18;;;5.40;;
47599;SDS011;33323;52.124;6.018;2022-10-04T04:47:50;10.95;;;6.53;;
47599;SDS011;33323;52.124;6.018;2022-10-04T04:50:20;10.80;;;5.78;;
47599;SDS011;33323;52.124;6.018;2022-10-04T04:55:45;26.23;;;6.13;;
47599;SDS011;33323;52.124;6.018;2022-10-04T04:58:31;27.98;;;5.93;;
47599;SDS011;33323;52.124;6.018;2022-10-04T05:01:03;35.15;;;8.32;;
47599;SDS011;33323;52.124;6.018;2022-10-04T05:06:34;17.52;;;8.13;;
47599;SDS011;33323;52.124;6.018;2022-10-04T05:09:23;11.50;;;5.20;;
47599;SDS011;33323;52.124;6.018;2022-10-04T05:12:14;11.27;;;7.18;;
47599;SDS011;33323;52.124;6.018;2022-10-04T05:14:48;14.95;;;8.32;;
47599;SDS011;33323;52.124;6.018;2022-10-04T05:17:23;17.45;;;9.43;;
47599;SDS011;33323;52.124;6.018;2022-10-04T05:19:55;33.15;;;9.13;;
47599;SDS011;33323;52.124;6.018;2022-10-04T05:22:24;14.68;;;9.27;;
47599;SDS011;33323;52.124;6.018;2022-10-04T05:24:55;17.05;;;7.40;;
47599;SDS011;33323;52.124;6.018;2022-10-04T05:27:34;9.52;;;7.18;;
47599;SDS011;33323;52.124;6.018;2022-10-04T05:30:11;14.43;;;7.55;;
47599;SDS011;33323;52.124;6.018;2022-10-04T05:33:06;9.50;;;6.03;;
47599;SDS011;33323;52.124;6.018;2022-10-04T05:35:41;10.90;;;7.20;;
47599;SDS011;33323;52.124;6.018;2022-10-04T05:38:22;15.80;;;8.00;;
47599;SDS011;33323;52.124;6.018;2022-10-04T05:41:24;11.40;;;7.82;;
47599;SDS011;33323;52.124;6.018;2022-10-04T05:44:00;15.00;;;9.30;;
47599;SDS011;33323;52.124;6.018;2022-10-04T05:46:32;18.52;;;7.22;;
47599;SDS011;33323;52.124;6.018;2022-10-04T05:49:07;11.38;;;8.40;;
47599;SDS011;33323;52.124;6.018;2022-10-04T05:54:39;10.88;;;7.50;;
47599;SDS011;33323;52.124;6.018;2022-10-04T05:57:09;13.50;;;7.78;;
47599;SDS011;33323;52.124;6.018;2022-10-04T06:00:15;13.63;;;10.05;;
47599;SDS011;33323;52.124;6.018;2022-10-04T06:22:51;21.60;;;9.20;;
47599;SDS011;33323;52.124;6.018;2022-10-04T06:25:26;16.15;;;9.93;;
47599;SDS011;33323;52.124;6.018;2022-10-04T06:39:38;22.60;;;11.48;;
47599;SDS011;33323;52.124;6.018;2022-10-04T06:45:21;21.35;;;12.25;;
47599;SDS011;33323;52.124;6.018;2022-10-04T06:49:01;18.55;;;12.82;;
47599;SDS011;33323;52.124;6.018;2022-10-04T07:00:12;25.00;;;14.80;;
47599;SDS011;33323;52.124;6.018;2022-10-04T07:02:45;25.90;;;14.75;;
47599;SDS011;33323;52.124;6.018;2022-10-04T07:05:39;27.08;;;14.70;;
47599;SDS011;33323;52.124;6.018;2022-10-04T07:08:49;25.67;;;14.13;;
47599;SDS011;33323;52.124;6.018;2022-10-04T07:13:59;22.40;;;15.93;;
47599;SDS011;33323;52.124;6.018;2022-10-04T07:16:50;26.15;;;16.42;;
47599;SDS011;33323;52.124;6.018;2022-10-04T07:20:12;31.30;;;15.77;;
47599;SDS011;33323;52.124;6.018;2022-10-04T07:22:21;25.40;;;14.60;;
47599;SDS011;33323;52.124;6.018;2022-10-04T07:33:30;25.60;;;13.25;;
47599;SDS011;33323;52.124;6.018;2022-10-04T07:36:07;22.27;;;14.38;;
47599;SDS011;33323;52.124;6.018;2022-10-04T07:38:44;22.05;;;14.05;;
47599;SDS011;33323;52.124;6.018;2022-10-04T07:41:21;23.55;;;14.13;;
47599;SDS011;33323;52.124;6.018;2022-10-04T07:43:59;23.27;;;14.70;;
47599;SDS011;33323;52.124;6.018;2022-10-04T07:49:12;16.95;;;11.27;;
47599;SDS011;33323;52.124;6.018;2022-10-04T07:52:18;15.40;;;9.45;;
47599;SDS011;33323;52.124;6.018;2022-10-04T08:09:13;13.75;;;7.97;;
47599;SDS011;33323;52.124;6.018;2022-10-04T08:12:23;12.73;;;7.90;;
47599;SDS011;33323;52.124;6.018;2022-10-04T08:21:22;13.60;;;7.68;;
47599;SDS011;33323;52.124;6.018;2022-10-04T08:24:12;14.30;;;6.72;;
47599;SDS011;33323;52.124;6.018;2022-10-04T08:27:17;9.27;;;5.70;;
47599;SDS011;33323;52.124;6.018;2022-10-04T08:30:29;12.10;;;5.43;;
47599;SDS011;33323;52.124;6.018;2022-10-04T08:34:07;10.52;;;6.80;;
47599;SDS011;33323;52.124;6.018;2022-10-04T08:55:11;9.68;;;5.38;;
47599;SDS011;33323;52.124;6.018;2022-10-04T09:15:01;7.75;;;4.95;;
47599;SDS011;33323;52.124;6.018;2022-10-04T09:17:46;10.07;;;5.22;;
47599;SDS011;33323;52.124;6.018;2022-10-04T09:47:56;12.40;;;3.45;;
47599;SDS011;33323;52.124;6.018;2022-10-04T09:51:08;9.98;;;4.07;;
47599;SDS011;33323;52.124;6.018;2022-10-04T10:11:47;8.00;;;4.55;;
47599;SDS011;33323;52.124;6.018;2022-10-04T10:18:47;9.07;;;4.40;;
47599;SDS011;33323;52.124;6.018;2022-10-04T10:32:46;9.55;;;4.47;;
47599;SDS011;33323;52.124;6.018;2022-10-04T10:38:53;5.53;;;3.50;;
47599;SDS011;33323;52.124;6.018;2022-10-04T10:47:52;8.60;;;3.83;;
47599;SDS011;33323;52.124;6.018;2022-10-04T10:50:42;14.23;;;4.30;;
47599;SDS011;33323;52.124;6.018;2022-10-04T10:53:45;15.70;;;4.88;;
47599;SDS011;33323;52.124;6.018;2022-10-04T10:57:13;8.18;;;3.55;;
47599;SDS011;33323;52.124;6.018;2022-10-04T10:59:55;9.10;;;3.42;;
47599;SDS011;33323;52.124;6.018;2022-10-04T11:32:04;7.75;;;3.67;;
47599;SDS011;33323;52.124;6.018;2022-10-04T11:35:25;8.45;;;3.15;;
47599;SDS011;33323;52.124;6.018;2022-10-04T11:41:25;8.82;;;3.20;;
47599;SDS011;33323;52.124;6.018;2022-10-04T11:49:56;4.47;;;2.00;;
47599;SDS011;33323;52.124;6.018;2022-10-04T11:58:43;7.30;;;2.88;;
47599;SDS011;33323;52.124;6.018;2022-10-04T12:08:37;6.37;;;3.57;;
47599;SDS011;33323;52.124;6.018;2022-10-04T12:35:58;8.05;;;2.47;;
47599;SDS011;33323;52.124;6.018;2022-10-04T12:41:29;7.63;;;2.47;;
47599;SDS011;33323;52.124;6.018;2022-10-04T12:49:54;5.38;;;2.50;;
47599;SDS011;33323;52.124;6.018;2022-10-04T12:53:01;3.92;;;1.67;;
47599;SDS011;33323;52.124;6.018;2022-10-04T12:59:16;7.72;;;2.28;;
47599;SDS011;33323;52.124;6.018;2022-10-04T13:02:03;6.95;;;2.60;;
47599;SDS011;33323;52.124;6.018;2022-10-04T13:05:04;14.27;;;3.03;;
47599;SDS011;33323;52.124;6.018;2022-10-04T13:08:42;5.13;;;2.83;;
47599;SDS011;33323;52.124;6.018;2022-10-04T13:25:49;4.68;;;1.90;;
47599;SDS011;33323;52.124;6.018;2022-10-04T13:31:45;6.13;;;2.10;;
47599;SDS011;33323;52.124;6.018;2022-10-04T13:42:54;7.93;;;2.95;;
47599;SDS011;33323;52.124;6.018;2022-10-04T13:45:44;16.00;;;4.03;;
47599;SDS011;33323;52.124;6.018;2022-10-04T13:54:39;7.93;;;2.47;;
47599;SDS011;33323;52.124;6.018;2022-10-04T13:57:51;3.38;;;1.77;;
47599;SDS011;33323;52.124;6.018;2022-10-04T14:07:08;5.65;;;2.03;;
47599;SDS011;33323;52.124;6.018;2022-10-04T14:19:25;10.95;;;2.58;;
47599;SDS011;33323;52.124;6.018;2022-10-04T14:22:22;10.75;;;2.22;;
47599;SDS011;33323;52.124;6.018;2022-10-04T14:25:23;3.30;;;2.25;;
47599;SDS011;33323;52.124;6.018;2022-10-04T14:36:52;4.00;;;1.80;;
47599;SDS011;33323;52.124;6.018;2022-10-04T14:54:13;3.88;;;1.63;;
47599;SDS011;33323;52.124;6.018;2022-10-04T14:56:50;4.82;;;1.45;;
47599;SDS011;33323;52.124;6.018;2022-10-04T15:02:32;6.13;;;1.83;;
47599;SDS011;33323;52.124;6.018;2022-10-04T15:11:08;7.22;;;2.70;;
47599;SDS011;33323;52.124;6.018;2022-10-04T15:13:52;5.65;;;1.95;;
47599;SDS011;33323;52.124;6.018;2022-10-04T15:16:32;5.82;;;1.90;;
47599;SDS011;33323;52.124;6.018;2022-10-04T15:24:48;5.65;;;1.67;;
47599;SDS011;33323;52.124;6.018;2022-10-04T15:38:29;2.90;;;1.50;;
47599;SDS011;33323;52.124;6.018;2022-10-04T15:41:04;6.30;;;2.03;;
47599;SDS011;33323;52.124;6.018;2022-10-04T15:49:47;3.05;;;1.63;;
47599;SDS011;33323;52.124;6.018;2022-10-04T15:52:43;3.50;;;2.10;;
47599;SDS011;33323;52.124;6.018;2022-10-04T16:01:31;6.72;;;2.00;;
47599;SDS011;33323;52.124;6.018;2022-10-04T16:04:19;6.05;;;1.77;;
47599;SDS011;33323;52.124;6.018;2022-10-04T16:07:28;10.60;;;2.72;;
47599;SDS011;33323;52.124;6.018;2022-10-04T16:10:22;4.75;;;2.15;;
47599;SDS011;33323;52.124;6.018;2022-10-04T16:18:59;7.03;;;1.95;;
47599;SDS011;33323;52.124;6.018;2022-10-04T16:22:07;4.80;;;2.30;;
47599;SDS011;33323;52.124;6.018;2022-10-04T16:24:52;6.75;;;1.90;;
47599;SDS011;33323;52.124;6.018;2022-10-04T16:30:42;4.25;;;1.70;;
47599;SDS011;33323;52.124;6.018;2022-10-04T16:36:43;4.20;;;2.10;;
47599;SDS011;33323;52.124;6.018;2022-10-04T16:47:38;7.45;;;2.85;;
47599;SDS011;33323;52.124;6.018;2022-10-04T16:59:44;3.67;;;2.58;;
47599;SDS011;33323;52.124;6.018;2022-10-04T17:16:38;6.18;;;2.30;;
47599;SDS011;33323;52.124;6.018;2022-10-04T17:19:33;5.25;;;2.53;;
47599;SDS011;33323;52.124;6.018;2022-10-04T17:22:14;9.48;;;2.83;;
47599;SDS011;33323;52.124;6.018;2022-10-04T17:25:12;5.30;;;2.20;;
47599;SDS011;33323;52.124;6.018;2022-10-04T17:27:52;6.05;;;3.25;;
47599;SDS011;33323;52.124;6.018;2022-10-04T17:30:26;5.35;;;2.55;;
47599;SDS011;33323;52.124;6.018;2022-10-04T17:35:56;10.88;;;3.15;;
47599;SDS011;33323;52.124;6.018;2022-10-04T17:38:50;5.78;;;2.55;;
47599;SDS011;33323;52.124;6.018;2022-10-04T17:41:44;11.30;;;3.47;;
47599;SDS011;33323;52.124;6.018;2022-10-04T17:47:26;14.88;;;5.15;;
47599;SDS011;33323;52.124;6.018;2022-10-04T17:53:48;10.88;;;4.05;;
47599;SDS011;33323;52.124;6.018;2022-10-04T17:56:41;11.95;;;5.10;;
47599;SDS011;33323;52.124;6.018;2022-10-04T17:59:23;8.88;;;4.47;;
47599;SDS011;33323;52.124;6.018;2022-10-04T18:02:08;7.63;;;4.07;;
47599;SDS011;33323;52.124;6.018;2022-10-04T18:04:54;5.85;;;4.47;;
47599;SDS011;33323;52.124;6.018;2022-10-04T18:07:40;8.60;;;4.40;;
47599;SDS011;33323;52.124;6.018;2022-10-04T18:10:30;8.38;;;4.97;;
47599;SDS011;33323;52.124;6.018;2022-10-04T18:16:09;7.90;;;5.32;;
47599;SDS011;33323;52.124;6.018;2022-10-04T18:22:07;8.13;;;4.70;;
47599;SDS011;33323;52.124;6.018;2022-10-04T18:24:48;8.60;;;4.40;;
47599;SDS011;33323;52.124;6.018;2022-10-04T18:27:58;8.57;;;4.38;;
47599;SDS011;33323;52.124;6.018;2022-10-04T18:30:32;5.65;;;3.70;;
47599;SDS011;33323;52.124;6.018;2022-10-04T18:33:21;8.95;;;4.70;;
47599;SDS011;33323;52.124;6.018;2022-10-04T18:38:57;9.80;;;4.75;;
47599;SDS011;33323;52.124;6.018;2022-10-04T18:41:43;11.07;;;4.78;;
47599;SDS011;33323;52.124;6.018;2022-10-04T18:44:42;9.73;;;5.43;;
47599;SDS011;33323;52.124;6.018;2022-10-04T18:47:17;9.18;;;4.55;;
47599;SDS011;33323;52.124;6.018;2022-10-04T18:50:03;6.03;;;4.53;;
47599;SDS011;33323;52.124;6.018;2022-10-04T18:52:50;10.32;;;4.30;;
47599;SDS011;33323;52.124;6.018;2022-10-04T18:55:59;9.68;;;4.45;;
47599;SDS011;33323;52.124;6.018;2022-10-04T19:04:42;9.40;;;4.85;;
47599;SDS011;33323;52.124;6.018;2022-10-04T19:07:45;13.80;;;4.45;;
47599;SDS011;33323;52.124;6.018;2022-10-04T19:10:36;13.63;;;5.05;;
47599;SDS011;33323;52.124;6.018;2022-10-04T19:13:23;4.80;;;3.38;;
47599;SDS011;33323;52.124;6.018;2022-10-04T19:25:20;8.45;;;4.55;;
47599;SDS011;33323;52.124;6.018;2022-10-04T19:27:49;8.52;;;4.00;;
47599;SDS011;33323;52.124;6.018;2022-10-04T19:42:02;9.75;;;4.30;;
47599;SDS011;33323;52.124;6.018;2022-10-04T19:44:43;6.82;;;3.83;;
47599;SDS011;33323;52.124;6.018;2022-10-04T19:50:17;7.50;;;4.20;;
47599;SDS011;33323;52.124;6.018;2022-10-04T19:53:00;9.85;;;4.50;;
47599;SDS011;33323;52.124;6.018;2022-10-04T19:55:51;7.78;;;4.38;;
47599;SDS011;33323;52.124;6.018;2022-10-04T20:01:09;7.07;;;4.05;;
47599;SDS011;33323;52.124;6.018;2022-10-04T20:06:05;9.25;;;4.72;;
47599;SDS011;33323;52.124;6.018;2022-10-04T20:08:49;9.30;;;3.92;;
47599;SDS011;33323;52.124;6.018;2022-10-04T20:19:17;5.85;;;3.85;;
47599;SDS011;33323;52.124;6.018;2022-10-04T20:21:49;8.02;;;3.20;;
47599;SDS011;33323;52.124;6.018;2022-10-04T20:24:17;9.00;;;4.35;;
47599;SDS011;33323;52.124;6.018;2022-10-04T20:27:04;11.35;;;3.90;;
47599;SDS011;33323;52.124;6.018;2022-10-04T20:37:04;8.73;;;3.45;;
47599;SDS011;33323;52.124;6.018;2022-10-04T20:44:59;6.88;;;3.08;;
47599;SDS011;33323;52.124;6.018;2022-10-04T20:47:33;6.65;;;2.67;;
47599;SDS011;33323;52.124;6.018;2022-10-04T20:52:37;4.90;;;3.05;;
47599;SDS011;33323;52.124;6.018;2022-10-04T20:55:28;11.23;;;3.60;;
47599;SDS011;33323;52.124;6.018;2022-10-04T20:58:02;5.47;;;3.20;;
47599;SDS011;33323;52.124;6.018;2022-10-04T21:01:01;5.30;;;3.25;;
47599;SDS011;33323;52.124;6.018;2022-10-04T21:04:12;8.82;;;3.20;;
47599;SDS011;33323;52.124;6.018;2022-10-04T21:06:56;7.10;;;2.97;;
47599;SDS011;33323;52.124;6.018;2022-10-04T21:09:29;11.52;;;3.95;;
47599;SDS011;33323;52.124;6.018;2022-10-04T21:11:58;6.03;;;3.55;;
47599;SDS011;33323;52.124;6.018;2022-10-04T21:14:27;6.90;;;3.65;;
47599;SDS011;33323;52.124;6.018;2022-10-04T21:20:03;6.50;;;2.85;;
47599;SDS011;33323;52.124;6.018;2022-10-04T21:22:32;10.05;;;3.97;;
47599;SDS011;33323;52.124;6.018;2022-10-04T21:25:04;7.80;;;4.18;;
47599;SDS011;33323;52.124;6.018;2022-10-04T21:27:52;4.35;;;3.33;;
47599;SDS011;33323;52.124;6.018;2022-10-04T21:30:20;7.13;;;2.97;;
47599;SDS011;33323;52.124;6.018;2022-10-04T21:32:48;6.05;;;3.63;;
47599;SDS011;33323;52.124;6.018;2022-10-04T21:35:15;8.93;;;3.10;;
47599;SDS011;33323;52.124;6.018;2022-10-04T21:37:42;10.65;;;3.00;;
47599;SDS011;33323;52.124;6.018;2022-10-04T21:40:09;5.78;;;3.90;;
47599;SDS011;33323;52.124;6.018;2022-10-04T21:42:38;8.23;;;4.15;;
47599;SDS011;33323;52.124;6.018;2022-10-04T21:45:06;7.25;;;3.60;;
47599;SDS011;33323;52.124;6.018;2022-10-04T21:47:33;7.38;;;4.07;;
47599;SDS011;33323;52.124;6.018;2022-10-04T21:50:00;6.57;;;3.90;;
47599;SDS011;33323;52.124;6.018;2022-10-04T21:52:28;5.45;;;3.78;;
47599;SDS011;33323;52.124;6.018;2022-10-04T21:54:55;8.25;;;3.78;;
47599;SDS011;33323;52.124;6.018;2022-10-04T21:57:22;7.50;;;4.40;;
47599;SDS011;33323;52.124;6.018;2022-10-04T21:59:50;9.45;;;4.55;;
47599;SDS011;33323;52.124;6.018;2022-10-04T22:02:17;6.00;;;4.10;;
47599;SDS011;33323;52.124;6.018;2022-10-04T22:04:44;6.82;;;3.58;;
47599;SDS011;33323;52.124;6.018;2022-10-04T22:07:11;5.38;;;3.83;;
47599;SDS011;33323;52.124;6.018;2022-10-04T22:09:39;6.82;;;3.92;;
47599;SDS011;33323;52.124;6.018;2022-10-04T22:12:08;9.05;;;4.32;;
47599;SDS011;33323;52.124;6.018;2022-10-04T22:14:35;9.98;;;4.00;;
47599;SDS011;33323;52.124;6.018;2022-10-04T22:17:02;11.52;;;4.00;;
47599;SDS011;33323;52.124;6.018;2022-10-04T22:19:30;5.28;;;3.40;;
47599;SDS011;33323;52.124;6.018;2022-10-04T22:21:57;8.05;;;4.43;;
47599;SDS011;33323;52.124;6.018;2022-10-04T22:24:24;7.80;;;4.93;;
47599;SDS011;33323;52.124;6.018;2022-10-04T22:26:51;6.53;;;3.22;;
47599;SDS011;33323;52.124;6.018;2022-10-04T22:29:18;8.40;;;4.35;;
47599;SDS011;33323;52.124;6.018;2022-10-04T22:31:48;8.27;;;4.53;;
47599;SDS011;33323;52.124;6.018;2022-10-04T22:34:18;8.15;;;4.20;;
47599;SDS011;33323;52.124;6.018;2022-10-04T22:36:48;9.73;;;4.63;;
47599;SDS011;33323;52.124;6.018;2022-10-04T22:39:18;8.23;;;5.05;;
47599;SDS011;33323;52.124;6.018;2022-10-04T22:41:55;8.18;;;4.05;;
47599;SDS011;33323;52.124;6.018;2022-10-04T22:47:03;6.95;;;4.10;;
47599;SDS011;33323;52.124;6.018;2022-10-04T22:49:37;6.65;;;4.30;;
47599;SDS011;33323;52.124;6.018;2022-10-04T22:52:15;7.13;;;4.22;;
47599;SDS011;33323;52.124;6.018;2022-10-04T22:54:52;7.85;;;3.90;;
47599;SDS011;33323;52.124;6.018;2022-10-04T22:57:23;7.65;;;4.00;;
47599;SDS011;33323;52.124;6.018;2022-10-04T22:59:51;6.30;;;3.80;;
47599;SDS011;33323;52.124;6.018;2022-10-04T23:02:22;7.38;;;4.03;;
47599;SDS011;33323;52.124;6.018;2022-10-04T23:04:54;7.05;;;4.00;;
47599;SDS011;33323;52.124;6.018;2022-10-04T23:07:27;8.45;;;4.43;;
47599;SDS011;33323;52.124;6.018;2022-10-04T23:09:54;10.27;;;4.00;;
47599;SDS011;33323;52.124;6.018;2022-10-04T23:12:21;9.32;;;5.13;;
47599;SDS011;33323;52.124;6.018;2022-10-04T23:14:48;7.82;;;4.07;;
47599;SDS011;33323;52.124;6.018;2022-10-04T23:20:00;16.35;;;5.80;;
47599;SDS011;33323;52.124;6.018;2022-10-04T23:22:43;9.27;;;3.95;;
47599;SDS011;33323;52.124;6.018;2022-10-04T23:25:14;8.40;;;4.75;;
47599;SDS011;33323;52.124;6.018;2022-10-04T23:27:59;7.30;;;4.22;;
47599;SDS011;33323;52.124;6.018;2022-10-04T23:30:30;7.35;;;4.25;;
47599;SDS011;33323;52.124;6.018;2022-10-04T23:32:58;6.75;;;3.72;;
47599;SDS011;33323;52.124;6.018;2022-10-04T23:35:30;10.45;;;4.70;;
47599;SDS011;33323;52.124;6.018;2022-10-04T23:37:59;7.90;;;4.88;;
47599;SDS011;33323;52.124;6.018;2022-10-04T23:40:32;8.80;;;4.25;;
47599;SDS011;33323;52.124;6.018;2022-10-04T23:42:59;8.32;;;4.40;;
47599;SDS011;33323;52.124;6.018;2022-10-04T23:45:29;6.55;;;4.40;;
47599;SDS011;33323;52.124;6.018;2022-10-04T23:47:57;7.85;;;4.63;;
47599;SDS011;33323;52.124;6.018;2022-10-04T23:50:32;12.40;;;4.40;;
47599;SDS011;33323;52.124;6.018;2022-10-04T23:53:02;8.13;;;4.38;;
47599;SDS011;33323;52.124;6.018;2022-10-04T23:55:33;6.63;;;4.32;;
47599;SDS011;33323;52.124;6.018;2022-10-04T23:58:13;8.35;;;4.15;;
